Time;durP1;ratioP1;P1;durP2;ratioP2;P2;SDS_P1;SDS_P2;PMS_P1;PMS_P2;Temp;Humidity;BMP_temperature;BMP_pressure;BME280_temperature;BME280_humidity;BME280_pressure;Samples;Min_cycle;Max_cycle;Signal;HPM_P1;HPM_P2
2021/05/24 00:02:14;;;;;;;523.45;359.92;;;;;;;;;;4982183;28;20120;-77
2021/05/24 00:04:40;;;;;;;514.83;350.17;;;;;;;;;;4985529;28;20032;-77
2021/05/24 00:07:06;;;;;;;515.67;357.75;;;;;;;;;;4988310;28;20042;-77
2021/05/24 00:09:32;;;;;;;513.17;352.17;;;;;;;;;;4985074;28;20440;-77
2021/05/24 00:11:59;;;;;;;514.55;355.58;;;;;;;;;;4988368;28;20034;-77
2021/05/24 00:14:26;;;;;;;510.58;345.63;;;;;;;;;;4990741;28;20022;-79
2021/05/24 00:16:52;;;;;;;510.55;346.80;;;;;;;;;;4988163;28;20023;-78
2021/05/24 00:19:18;;;;;;;513.92;352.15;;;;;;;;;;4987573;28;20301;-76
2021/05/24 00:21:44;;;;;;;515.08;351.77;;;;;;;;;;4987842;28;20444;-76
2021/05/24 00:24:10;;;;;;;509.98;341.48;;;;;;;;;;4984986;28;20076;-79
2021/05/24 00:26:36;;;;;;;509.33;349.60;;;;;;;;;;4987407;28;20410;-77
2021/05/24 00:29:02;;;;;;;509.23;341.30;;;;;;;;;;4989597;28;20113;-76
2021/05/24 00:31:28;;;;;;;514.53;354.52;;;;;;;;;;4984841;28;20549;-78
2021/05/24 00:33:54;;;;;;;514.78;347.85;;;;;;;;;;4985896;28;20025;-79
2021/05/24 00:36:20;;;;;;;508.60;347.02;;;;;;;;;;4989098;28;20030;-76
2021/05/24 00:38:46;;;;;;;512.45;347.85;;;;;;;;;;4988558;28;20033;-77
2021/05/24 00:41:12;;;;;;;514.70;358.95;;;;;;;;;;4988329;28;20026;-78
2021/05/24 00:43:38;;;;;;;513.80;356.23;;;;;;;;;;4996690;28;20418;-76
2021/05/24 00:46:04;;;;;;;516.05;355.27;;;;;;;;;;5006090;28;20093;-77
2021/05/24 00:48:30;;;;;;;521.55;362.77;;;;;;;;;;4982767;28;20058;-77
2021/05/24 00:50:56;;;;;;;513.53;355.70;;;;;;;;;;5006205;28;20031;-77
2021/05/24 00:53:22;;;;;;;517.40;361.48;;;;;;;;;;4982597;28;20022;-77
2021/05/24 00:55:48;;;;;;;512.58;356.75;;;;;;;;;;5003604;28;20018;-76
2021/05/24 00:58:14;;;;;;;522.75;365.33;;;;;;;;;;5000390;28;20339;-76
2021/05/24 01:00:45;;;;;;;514.63;358.30;;;;;;;;;;4984230;28;20075;-78
2021/05/24 01:03:11;;;;;;;519.58;367.52;;;;;;;;;;5002333;28;20035;-78
2021/05/24 01:05:38;;;;;;;514.47;364.13;;;;;;;;;;4980998;28;20039;-77
2021/05/24 01:08:04;;;;;;;516.08;359.95;;;;;;;;;;4981744;28;20042;-77
2021/05/24 01:10:31;;;;;;;514.78;359.10;;;;;;;;;;4982004;28;20326;-78
2021/05/24 01:12:58;;;;;;;512.25;354.00;;;;;;;;;;4982597;28;20056;-78
2021/05/24 01:15:24;;;;;;;512.13;357.73;;;;;;;;;;4982481;28;20105;-75
2021/05/24 01:17:50;;;;;;;508.63;355.75;;;;;;;;;;4983877;28;20039;-76
2021/05/24 01:20:17;;;;;;;512.53;351.85;;;;;;;;;;4982110;28;20014;-76
2021/05/24 01:22:55;;;;;;;511.23;357.40;;;;;;;;;;4979419;28;20031;-77
2021/05/24 01:25:21;;;;;;;508.65;351.92;;;;;;;;;;4984344;28;20034;-79
2021/05/24 01:27:47;;;;;;;503.70;349.83;;;;;;;;;;4982715;28;20038;-79
2021/05/24 01:30:13;;;;;;;503.83;348.25;;;;;;;;;;4982934;28;20030;-78
2021/05/24 01:32:41;;;;;;;500.90;345.23;;;;;;;;;;4984567;28;20023;-77
2021/05/24 01:35:07;;;;;;;504.10;346.50;;;;;;;;;;4982600;28;20041;-78
2021/05/24 01:37:33;;;;;;;509.17;355.42;;;;;;;;;;4986098;28;20022;-77
2021/05/24 01:40:00;;;;;;;503.40;346.08;;;;;;;;;;4982953;28;20026;-77
2021/05/24 01:42:26;;;;;;;504.35;352.27;;;;;;;;;;4978324;28;20034;-77
2021/05/24 01:44:52;;;;;;;505.30;354.60;;;;;;;;;;4981048;28;20027;-79
2021/05/24 01:47:18;;;;;;;505.35;356.40;;;;;;;;;;4987879;28;20053;-77
2021/05/24 01:49:47;;;;;;;505.35;360.23;;;;;;;;;;4982519;28;20023;-77
2021/05/24 01:52:14;;;;;;;501.30;349.52;;;;;;;;;;4981474;28;20053;-78
2021/05/24 01:54:40;;;;;;;508.73;358.58;;;;;;;;;;4983581;28;20022;-76
2021/05/24 01:57:06;;;;;;;508.10;356.30;;;;;;;;;;4984223;28;20075;-76
2021/05/24 01:59:32;;;;;;;506.17;350.23;;;;;;;;;;4976398;28;20023;-76
2021/05/24 02:01:58;;;;;;;506.15;359.88;;;;;;;;;;4981738;28;20107;-77
2021/05/24 02:04:24;;;;;;;504.77;353.25;;;;;;;;;;4983748;28;20050;-78
2021/05/24 02:06:49;;;;;;;503.92;354.25;;;;;;;;;;4986984;28;20042;-75
2021/05/24 02:09:15;;;;;;;508.13;358.40;;;;;;;;;;4979838;28;20034;-76
2021/05/24 02:11:42;;;;;;;503.30;350.70;;;;;;;;;;4984843;28;20193;-77
2021/05/24 02:14:08;;;;;;;500.70;348.63;;;;;;;;;;4984061;28;20443;-78
2021/05/24 02:16:42;;;;;;;502.52;353.80;;;;;;;;;;4982042;28;20121;-77
2021/05/24 02:19:09;;;;;;;503.50;356.02;;;;;;;;;;4980461;28;20033;-78
2021/05/24 02:21:35;;;;;;;497.42;347.88;;;;;;;;;;4981904;28;20030;-78
2021/05/24 02:24:02;;;;;;;499.30;346.45;;;;;;;;;;4981632;28;20167;-77
2021/05/24 02:26:28;;;;;;;499.98;352.95;;;;;;;;;;4983664;28;20039;-75
2021/05/24 02:28:53;;;;;;;497.88;350.70;;;;;;;;;;4984355;28;20133;-76
2021/05/24 02:31:20;;;;;;;497.40;348.08;;;;;;;;;;4984087;28;20026;-77
2021/05/24 02:33:46;;;;;;;500.27;351.75;;;;;;;;;;4984513;28;20018;-77
2021/05/24 02:36:12;;;;;;;498.73;355.63;;;;;;;;;;4982839;28;20050;-77
2021/05/24 02:38:38;;;;;;;502.67;359.30;;;;;;;;;;4981993;28;20069;-77
2021/05/24 02:41:05;;;;;;;496.65;350.75;;;;;;;;;;4983140;28;20120;-77
2021/05/24 02:43:31;;;;;;;499.33;352.23;;;;;;;;;;4982703;28;20431;-77
2021/05/24 02:45:56;;;;;;;497.95;355.23;;;;;;;;;;4981144;28;20022;-77
2021/05/24 02:48:23;;;;;;;499.83;352.85;;;;;;;;;;4980107;28;20384;-77
2021/05/24 02:50:49;;;;;;;495.80;348.42;;;;;;;;;;4980967;28;20026;-78
2021/05/24 02:53:15;;;;;;;498.77;353.05;;;;;;;;;;4981026;28;20026;-77
2021/05/24 02:55:41;;;;;;;494.33;345.35;;;;;;;;;;4980840;28;20037;-76
2021/05/24 02:58:07;;;;;;;494.42;348.83;;;;;;;;;;4981125;28;20030;-77
2021/05/24 03:00:33;;;;;;;496.00;348.75;;;;;;;;;;4976610;28;20122;-77
2021/05/24 03:02:59;;;;;;;499.67;351.27;;;;;;;;;;4984284;28;20014;-76
2021/05/24 03:05:25;;;;;;;496.15;349.90;;;;;;;;;;4982827;28;20046;-77
2021/05/24 03:07:52;;;;;;;496.70;349.02;;;;;;;;;;4981638;28;20050;-78
2021/05/24 03:10:19;;;;;;;494.63;341.63;;;;;;;;;;4980080;28;20039;-77
2021/05/24 03:12:46;;;;;;;494.13;346.92;;;;;;;;;;4985337;28;20022;-79
2021/05/24 03:15:12;;;;;;;503.15;355.85;;;;;;;;;;4981778;28;20080;-76
2021/05/24 03:17:39;;;;;;;503.70;355.58;;;;;;;;;;4983205;28;20039;-77
2021/05/24 03:20:06;;;;;;;494.63;349.23;;;;;;;;;;4983338;28;20110;-77
2021/05/24 03:22:32;;;;;;;492.30;343.95;;;;;;;;;;4981650;28;20026;-77
2021/05/24 03:24:58;;;;;;;497.48;348.02;;;;;;;;;;4979487;28;20026;-77
2021/05/24 03:27:24;;;;;;;495.10;346.27;;;;;;;;;;4983376;28;20034;-78
2021/05/24 03:29:50;;;;;;;496.08;346.17;;;;;;;;;;4979272;28;20019;-76
2021/05/24 03:32:16;;;;;;;491.85;340.25;;;;;;;;;;4980191;28;20065;-76
2021/05/24 03:34:42;;;;;;;491.73;345.48;;;;;;;;;;4984247;28;20034;-77
2021/05/24 03:37:08;;;;;;;489.83;344.60;;;;;;;;;;4986949;28;20022;-78
2021/05/24 03:39:34;;;;;;;496.63;349.90;;;;;;;;;;4978055;28;20352;-76
2021/05/24 03:42:00;;;;;;;489.20;344.80;;;;;;;;;;4987144;28;20023;-77
2021/05/24 03:44:26;;;;;;;485.65;334.52;;;;;;;;;;4981274;28;20033;-78
2021/05/24 03:46:52;;;;;;;495.52;348.40;;;;;;;;;;4984119;28;20026;-78
2021/05/24 03:49:18;;;;;;;488.48;341.25;;;;;;;;;;4982546;28;20639;-77
2021/05/24 03:51:44;;;;;;;491.08;343.80;;;;;;;;;;4985193;28;20071;-77
2021/05/24 03:54:10;;;;;;;493.92;342.55;;;;;;;;;;4982416;28;20108;-77
2021/05/24 03:56:36;;;;;;;494.55;344.75;;;;;;;;;;4983161;28;20026;-76
2021/05/24 03:59:03;;;;;;;497.85;346.30;;;;;;;;;;4982583;28;20022;-77
2021/05/24 04:01:29;;;;;;;497.38;346.58;;;;;;;;;;4984770;28;20824;-76
2021/05/24 04:03:55;;;;;;;497.65;346.08;;;;;;;;;;4980019;28;20048;-76
2021/05/24 04:06:25;;;;;;;498.10;348.23;;;;;;;;;;4982141;28;20462;-77
2021/05/24 04:08:51;;;;;;;499.10;347.42;;;;;;;;;;4985868;28;20031;-77
2021/05/24 04:11:17;;;;;;;504.95;358.00;;;;;;;;;;4982387;28;20062;-78
2021/05/24 04:13:49;;;;;;;500.88;350.17;;;;;;;;;;4983656;28;20027;-78
2021/05/24 04:16:15;;;;;;;502.52;356.83;;;;;;;;;;4987082;28;20022;-76
2021/05/24 04:18:46;;;;;;;504.65;354.60;;;;;;;;;;4985753;28;20022;-77
2021/05/24 04:21:12;;;;;;;506.77;352.17;;;;;;;;;;4985245;28;20151;-77
2021/05/24 04:23:38;;;;;;;506.65;350.40;;;;;;;;;;4987366;28;20050;-77
2021/05/24 04:26:04;;;;;;;512.33;355.88;;;;;;;;;;4984076;28;20026;-76
2021/05/24 04:28:30;;;;;;;508.50;357.48;;;;;;;;;;4996123;28;20038;-78
2021/05/24 04:30:56;;;;;;;507.65;352.08;;;;;;;;;;4983256;28;20031;-77
2021/05/24 04:33:22;;;;;;;504.90;354.45;;;;;;;;;;4987532;28;20027;-78
2021/05/24 04:35:48;;;;;;;499.58;343.90;;;;;;;;;;4984477;28;20471;-77
2021/05/24 04:38:14;;;;;;;498.48;338.50;;;;;;;;;;4977112;28;20031;-77
2021/05/24 04:40:40;;;;;;;501.48;345.35;;;;;;;;;;4977941;28;20019;-77
2021/05/24 04:43:06;;;;;;;505.27;349.88;;;;;;;;;;4985362;28;20029;-77
2021/05/24 04:45:32;;;;;;;503.25;350.25;;;;;;;;;;4983486;28;20097;-77
2021/05/24 04:47:58;;;;;;;504.35;348.58;;;;;;;;;;4981571;28;20041;-77
2021/05/24 04:50:24;;;;;;;506.02;351.02;;;;;;;;;;4977316;28;20015;-78
2021/05/24 04:52:50;;;;;;;510.85;357.55;;;;;;;;;;4983738;28;20430;-77
2021/05/24 04:55:18;;;;;;;513.70;355.42;;;;;;;;;;4979917;28;20018;-77
2021/05/24 04:57:44;;;;;;;508.58;348.42;;;;;;;;;;4980927;28;20010;-77
2021/05/24 05:00:11;;;;;;;513.65;361.88;;;;;;;;;;4983578;28;20421;-78
2021/05/24 05:02:37;;;;;;;512.85;358.85;;;;;;;;;;4976793;28;20034;-78
2021/05/24 05:05:04;;;;;;;512.28;361.52;;;;;;;;;;4980448;28;20089;-76
2021/05/24 05:07:31;;;;;;;503.77;353.67;;;;;;;;;;4976586;28;20034;-76
2021/05/24 05:09:58;;;;;;;504.08;348.60;;;;;;;;;;4978219;28;20492;-76
2021/05/24 05:12:24;;;;;;;508.65;356.60;;;;;;;;;;4980981;28;20041;-77
2021/05/24 05:14:50;;;;;;;504.75;346.98;;;;;;;;;;4988287;28;20049;-76
2021/05/24 05:17:16;;;;;;;516.10;361.02;;;;;;;;;;4995266;28;20018;-76
2021/05/24 05:19:42;;;;;;;511.17;356.88;;;;;;;;;;4983426;28;20029;-77
2021/05/24 05:22:08;;;;;;;507.77;351.45;;;;;;;;;;4980241;28;20587;-77
2021/05/24 05:24:34;;;;;;;509.98;354.08;;;;;;;;;;4986913;28;20515;-78
2021/05/24 05:27:00;;;;;;;508.45;355.80;;;;;;;;;;4979204;28;20037;-76
2021/05/24 05:29:27;;;;;;;506.92;356.05;;;;;;;;;;4978166;28;20030;-79
2021/05/24 05:31:54;;;;;;;508.00;349.55;;;;;;;;;;4984184;28;20054;-78
2021/05/24 05:34:20;;;;;;;505.48;351.05;;;;;;;;;;4981170;28;20518;-76
2021/05/24 05:36:46;;;;;;;507.67;355.08;;;;;;;;;;4976336;28;20076;-76
2021/05/24 05:39:12;;;;;;;510.30;356.08;;;;;;;;;;4981167;28;20018;-77
2021/05/24 05:41:38;;;;;;;513.70;357.13;;;;;;;;;;4984353;28;20068;-77
2021/05/24 05:44:07;;;;;;;507.58;348.00;;;;;;;;;;4979725;28;20603;-75
2021/05/24 05:46:34;;;;;;;505.35;348.95;;;;;;;;;;4984680;28;20491;-76
2021/05/24 05:49:00;;;;;;;510.13;354.45;;;;;;;;;;4977856;28;20040;-76
2021/05/24 05:51:27;;;;;;;509.25;352.75;;;;;;;;;;4995690;28;20434;-77
2021/05/24 05:53:53;;;;;;;507.13;352.33;;;;;;;;;;4987475;28;20065;-77
2021/05/24 05:56:19;;;;;;;506.83;351.25;;;;;;;;;;4996394;28;20026;-79
2021/05/24 05:58:45;;;;;;;509.33;359.90;;;;;;;;;;4977518;28;20026;-77
2021/05/24 06:01:11;;;;;;;506.55;353.77;;;;;;;;;;4984843;28;20316;-77
2021/05/24 06:03:37;;;;;;;510.08;359.80;;;;;;;;;;4977759;28;20030;-80
2021/05/24 06:06:06;;;;;;;509.88;358.25;;;;;;;;;;4982406;28;20129;-81
2021/05/24 06:08:32;;;;;;;509.77;360.92;;;;;;;;;;4982651;28;20033;-77
2021/05/24 06:10:58;;;;;;;507.13;357.55;;;;;;;;;;4988172;28;20440;-78
2021/05/24 06:13:25;;;;;;;511.65;363.83;;;;;;;;;;4987144;28;20014;-77
2021/05/24 06:15:51;;;;;;;507.73;361.25;;;;;;;;;;4998291;28;20565;-78
2021/05/24 06:18:17;;;;;;;512.80;366.67;;;;;;;;;;4986033;28;20033;-78
2021/05/24 06:20:46;;;;;;;514.67;374.02;;;;;;;;;;4992242;28;20344;-79
2021/05/24 06:23:12;;;;;;;515.10;370.27;;;;;;;;;;4985812;28;20031;-78
2021/05/24 06:25:38;;;;;;;520.90;375.00;;;;;;;;;;4993561;28;20049;-79
2021/05/24 06:28:04;;;;;;;524.30;372.60;;;;;;;;;;4974088;28;20045;-79
2021/05/24 06:30:31;;;;;;;513.35;367.63;;;;;;;;;;4982896;28;20026;-78
2021/05/24 06:32:57;;;;;;;509.88;363.08;;;;;;;;;;4981076;28;20105;-79
2021/05/24 06:35:23;;;;;;;509.52;362.02;;;;;;;;;;4977825;28;20121;-78
2021/05/24 06:37:49;;;;;;;515.25;369.15;;;;;;;;;;4980683;28;20171;-78
2021/05/24 06:40:15;;;;;;;511.38;362.10;;;;;;;;;;4982781;28;20503;-78
2021/05/24 06:42:43;;;;;;;503.98;349.05;;;;;;;;;;4979271;28;20108;-79
2021/05/24 06:45:09;;;;;;;514.95;360.98;;;;;;;;;;4978281;28;20034;-78
2021/05/24 06:47:36;;;;;;;514.53;358.85;;;;;;;;;;4975603;28;20034;-79
2021/05/24 06:50:03;;;;;;;518.03;354.95;;;;;;;;;;4999076;28;20027;-77
2021/05/24 06:52:30;;;;;;;526.63;367.85;;;;;;;;;;4981597;28;20038;-77
2021/05/24 06:55:00;;;;;;;519.78;359.50;;;;;;;;;;4991125;28;20025;-78
2021/05/24 06:57:26;;;;;;;519.38;350.58;;;;;;;;;;4981583;28;20033;-79
2021/05/24 06:59:52;;;;;;;522.75;350.48;;;;;;;;;;4995029;28;20023;-78
2021/05/24 07:02:18;;;;;;;518.25;354.00;;;;;;;;;;4987668;28;20052;-77
2021/05/24 07:04:45;;;;;;;519.72;348.95;;;;;;;;;;4985626;28;20423;-79
2021/05/24 07:07:11;;;;;;;520.75;350.90;;;;;;;;;;4977488;28;20130;-77
2021/05/24 07:09:37;;;;;;;526.40;359.20;;;;;;;;;;4986146;28;20045;-79
2021/05/24 07:12:03;;;;;;;514.88;356.90;;;;;;;;;;4988233;28;20023;-77
2021/05/24 07:14:29;;;;;;;518.95;353.02;;;;;;;;;;5003193;28;20432;-79
2021/05/24 07:16:55;;;;;;;521.28;351.23;;;;;;;;;;4987256;28;20057;-79
2021/05/24 07:19:22;;;;;;;521.70;348.95;;;;;;;;;;4982666;28;20146;-78
2021/05/24 07:21:48;;;;;;;518.75;348.10;;;;;;;;;;4987450;28;20030;-78
2021/05/24 07:24:14;;;;;;;524.25;357.58;;;;;;;;;;4999821;28;20149;-77
2021/05/24 07:26:40;;;;;;;505.90;345.65;;;;;;;;;;4988461;28;20144;-77
2021/05/24 07:29:06;;;;;;;510.17;348.48;;;;;;;;;;4984231;28;20033;-76
2021/05/24 07:31:32;;;;;;;512.42;348.80;;;;;;;;;;4987791;28;20114;-78
2021/05/24 07:33:58;;;;;;;508.80;353.25;;;;;;;;;;4983602;28;20113;-80
2021/05/24 07:36:24;;;;;;;512.53;355.83;;;;;;;;;;4995246;28;20075;-79
2021/05/24 07:38:50;;;;;;;512.40;357.77;;;;;;;;;;4988961;28;20026;-78
2021/05/24 07:41:16;;;;;;;514.55;361.45;;;;;;;;;;5009250;28;20041;-77
2021/05/24 07:43:42;;;;;;;516.13;364.67;;;;;;;;;;5000786;28;20038;-79
2021/05/24 07:46:08;;;;;;;505.13;348.70;;;;;;;;;;4983930;28;20037;-75
2021/05/24 07:48:34;;;;;;;505.45;351.50;;;;;;;;;;4994333;28;20034;-81
2021/05/24 07:51:02;;;;;;;505.40;354.02;;;;;;;;;;4977515;28;20035;-78
2021/05/24 07:53:28;;;;;;;510.92;357.63;;;;;;;;;;4981268;28;20264;-78
2021/05/24 07:55:54;;;;;;;507.58;359.08;;;;;;;;;;4987899;28;20374;-78
2021/05/24 07:58:24;;;;;;;508.48;360.02;;;;;;;;;;4989781;28;20670;-81
2021/05/24 08:00:50;;;;;;;508.30;358.42;;;;;;;;;;5005698;28;20021;-76
2021/05/24 08:03:15;;;;;;;579.78;422.73;;;;;;;;;;4975167;28;20013;-77
2021/05/24 08:05:41;;;;;;;514.13;361.75;;;;;;;;;;4989453;28;20034;-78
2021/05/24 08:08:07;;;;;;;508.50;351.83;;;;;;;;;;4983283;28;20053;-78
2021/05/24 08:10:34;;;;;;;511.42;357.33;;;;;;;;;;4983212;28;20059;-78
2021/05/24 08:13:00;;;;;;;508.23;356.67;;;;;;;;;;4990744;28;20022;-78
2021/05/24 08:15:30;;;;;;;510.02;356.45;;;;;;;;;;4985458;28;20054;-79
2021/05/24 08:17:57;;;;;;;524.63;369.02;;;;;;;;;;4992150;28;20029;-78
2021/05/24 08:20:23;;;;;;;522.92;363.67;;;;;;;;;;5000467;28;20022;-77
2021/05/24 08:22:49;;;;;;;522.78;365.52;;;;;;;;;;4976075;28;20026;-77
2021/05/24 08:25:15;;;;;;;520.25;360.25;;;;;;;;;;4982431;28;20483;-79
2021/05/24 08:27:41;;;;;;;533.03;372.83;;;;;;;;;;4976147;28;20451;-79
2021/05/24 08:30:09;;;;;;;533.50;367.73;;;;;;;;;;4996368;28;20029;-79
2021/05/24 08:32:35;;;;;;;529.45;362.38;;;;;;;;;;4981826;28;20105;-79
2021/05/24 08:35:02;;;;;;;530.95;363.38;;;;;;;;;;4984719;28;20578;-79
2021/05/24 08:37:28;;;;;;;512.13;353.50;;;;;;;;;;4997940;28;20104;-76
2021/05/24 08:39:54;;;;;;;490.92;341.45;;;;;;;;;;4989595;28;20100;-77
2021/05/24 08:42:20;;;;;;;492.90;351.02;;;;;;;;;;4986402;28;20045;-77
2021/05/24 08:44:48;;;;;;;483.20;339.52;;;;;;;;;;4984706;28;20037;-78
2021/05/24 08:47:14;;;;;;;492.95;348.42;;;;;;;;;;4979129;28;20030;-78
2021/05/24 08:49:40;;;;;;;486.77;341.40;;;;;;;;;;4997613;28;20542;-76
2021/05/24 08:52:06;;;;;;;486.58;338.17;;;;;;;;;;4980524;28;20113;-79
2021/05/24 08:54:36;;;;;;;485.50;337.38;;;;;;;;;;4986168;28;20072;-79
2021/05/24 08:57:03;;;;;;;488.02;340.48;;;;;;;;;;4978690;28;20499;-79
2021/05/24 08:59:29;;;;;;;487.63;337.30;;;;;;;;;;4981178;28;20038;-78
2021/05/24 09:01:55;;;;;;;489.20;337.98;;;;;;;;;;4997934;28;20325;-78
2021/05/24 09:04:21;;;;;;;500.27;338.85;;;;;;;;;;4972723;28;20023;-78
2021/05/24 09:06:49;;;;;;;503.40;341.63;;;;;;;;;;4993747;28;20042;-78
2021/05/24 09:09:19;;;;;;;508.90;344.67;;;;;;;;;;4985073;28;20474;-78
2021/05/24 09:11:45;;;;;;;509.52;348.73;;;;;;;;;;4993564;28;20080;-77
2021/05/24 09:14:12;;;;;;;507.83;342.83;;;;;;;;;;4980281;28;20448;-78
2021/05/24 09:16:38;;;;;;;513.40;351.42;;;;;;;;;;4974542;28;20044;-78
2021/05/24 09:19:18;;;;;;;516.38;359.58;;;;;;;;;;4992459;28;20027;-79
2021/05/24 09:21:57;;;;;;;510.75;349.38;;;;;;;;;;4993591;28;20042;-77
2021/05/24 09:24:38;;;;;;;515.60;345.10;;;;;;;;;;4997818;28;20472;-79
2021/05/24 09:27:05;;;;;;;596.90;418.30;;;;;;;;;;4985134;28;20022;-77
2021/05/24 09:29:44;;;;;;;533.05;372.75;;;;;;;;;;4984517;28;20862;-78
2021/05/24 09:32:20;;;;;;;507.67;352.90;;;;;;;;;;4995963;28;20029;-78
2021/05/24 09:34:49;;;;;;;514.22;361.63;;;;;;;;;;4974260;28;20054;-78
2021/05/24 09:37:16;;;;;;;519.40;372.52;;;;;;;;;;4994088;28;20095;-77
2021/05/24 09:39:42;;;;;;;513.83;372.52;;;;;;;;;;4993685;28;20072;-77
2021/05/24 09:42:17;;;;;;;517.25;372.02;;;;;;;;;;4993759;28;20018;-77
2021/05/24 09:44:46;;;;;;;517.17;361.40;;;;;;;;;;4996311;28;20021;-77
2021/05/24 09:47:13;;;;;;;522.67;367.00;;;;;;;;;;4995151;28;20326;-79
2021/05/24 09:49:40;;;;;;;544.20;371.90;;;;;;;;;;4993271;28;20026;-76
2021/05/24 09:52:06;;;;;;;744.55;536.30;;;;;;;;;;4974056;28;20018;-76
2021/05/24 09:54:33;;;;;;;617.08;424.02;;;;;;;;;;4979796;28;20861;-77
2021/05/24 09:57:03;;;;;;;473.58;338.33;;;;;;;;;;4982531;28;20068;-77
2021/05/24 09:59:30;;;;;;;472.17;335.45;;;;;;;;;;4981717;28;20036;-79
2021/05/24 10:01:58;;;;;;;471.13;335.20;;;;;;;;;;4978842;28;20624;-77
2021/05/24 10:04:25;;;;;;;478.42;334.77;;;;;;;;;;4985964;28;20075;-77
2021/05/24 10:06:51;;;;;;;481.30;344.02;;;;;;;;;;4979563;28;20479;-77
2021/05/24 10:09:18;;;;;;;487.55;344.33;;;;;;;;;;4975220;28;20038;-78
2021/05/24 10:11:45;;;;;;;478.40;337.63;;;;;;;;;;4973698;28;20096;-78
2021/05/24 10:14:12;;;;;;;477.23;331.05;;;;;;;;;;4973809;28;20070;-75
2021/05/24 10:16:45;;;;;;;476.58;334.35;;;;;;;;;;4977778;28;20864;-79
2021/05/24 10:19:13;;;;;;;487.25;344.58;;;;;;;;;;4980932;28;20449;-79
2021/05/24 10:21:39;;;;;;;490.00;342.83;;;;;;;;;;4976403;28;20030;-78
2021/05/24 10:24:07;;;;;;;503.17;341.77;;;;;;;;;;4973589;28;20445;-76
2021/05/24 10:26:35;;;;;;;522.25;361.73;;;;;;;;;;4976765;28;20033;-77
2021/05/24 10:29:01;;;;;;;498.98;342.80;;;;;;;;;;4982843;28;20123;-77
2021/05/24 10:31:28;;;;;;;501.73;346.17;;;;;;;;;;4971389;28;20058;-77
2021/05/24 10:33:55;;;;;;;506.58;347.77;;;;;;;;;;4978903;28;20102;-78
2021/05/24 10:36:32;;;;;;;579.80;400.55;;;;;;;;;;4981889;28;20140;-78
2021/05/24 10:39:04;;;;;;;525.33;363.08;;;;;;;;;;4972292;28;20320;-83
2021/05/24 10:41:44;;;;;;;523.97;358.80;;;;;;;;;;4981356;28;20034;-78
2021/05/24 10:44:12;;;;;;;568.60;392.17;;;;;;;;;;4976173;28;20075;-78
2021/05/24 10:46:38;;;;;;;564.72;390.27;;;;;;;;;;4975378;28;20035;-79
2021/05/24 10:49:06;;;;;;;565.58;394.75;;;;;;;;;;4978720;28;20034;-79
2021/05/24 10:51:53;;;;;;;572.13;396.50;;;;;;;;;;4972707;28;20829;-78
2021/05/24 10:54:28;;;;;;;580.97;409.50;;;;;;;;;;4986505;28;20603;-78
2021/05/24 10:57:00;;;;;;;626.05;445.45;;;;;;;;;;4978408;28;21318;-76
2021/05/24 10:59:41;;;;;;;596.28;417.58;;;;;;;;;;4974429;28;20031;-78
2021/05/24 11:02:08;;;;;;;555.60;392.98;;;;;;;;;;4974876;28;20023;-78
2021/05/24 11:04:46;;;;;;;533.05;376.05;;;;;;;;;;4975971;28;20049;-76
2021/05/24 11:07:29;;;;;;;542.05;385.48;;;;;;;;;;4986190;28;20054;-78
2021/05/24 11:10:13;;;;;;;554.83;390.83;;;;;;;;;;4982698;28;20046;-78
2021/05/24 11:12:39;;;;;;;540.85;382.17;;;;;;;;;;4986480;28;20037;-77
2021/05/24 11:15:12;;;;;;;572.97;408.85;;;;;;;;;;5009790;28;20028;-77
2021/05/24 11:17:57;;;;;;;518.78;367.63;;;;;;;;;;4995124;28;20049;-77
2021/05/24 11:20:43;;;;;;;519.13;370.33;;;;;;;;;;4990274;28;20028;-77
2021/05/24 11:26:14;;;;;;;506.33;363.63;;;;;;;;;;4993625;28;20052;-76
2021/05/24 11:28:40;;;;;;;502.73;366.58;;;;;;;;;;4995886;28;20040;-77
2021/05/24 11:31:20;;;;;;;496.45;359.98;;;;;;;;;;4982418;28;20030;-78
2021/05/24 11:33:49;;;;;;;493.35;355.35;;;;;;;;;;4981235;28;20025;-78
2021/05/24 11:36:21;;;;;;;491.50;350.63;;;;;;;;;;4977852;28;20398;-77
2021/05/24 11:38:59;;;;;;;488.20;346.02;;;;;;;;;;4980166;28;20032;-76
2021/05/24 11:41:29;;;;;;;494.50;350.13;;;;;;;;;;4980382;28;20045;-78
2021/05/24 11:43:55;;;;;;;492.58;354.58;;;;;;;;;;4994978;28;20093;-77
2021/05/24 11:46:23;;;;;;;492.30;357.70;;;;;;;;;;4978806;28;20441;-78
2021/05/24 11:48:51;;;;;;;491.55;351.33;;;;;;;;;;4979391;28;20042;-79
2021/05/24 11:51:18;;;;;;;493.92;360.25;;;;;;;;;;4984831;28;20018;-79
2021/05/24 11:54:01;;;;;;;494.38;360.48;;;;;;;;;;4995891;28;20015;-77
2021/05/24 11:56:46;;;;;;;490.58;353.10;;;;;;;;;;4983303;28;20513;-77
2021/05/24 11:59:13;;;;;;;492.35;357.48;;;;;;;;;;4982769;28;20018;-77
2021/05/24 12:01:40;;;;;;;492.52;360.70;;;;;;;;;;4985254;28;20045;-78
2021/05/24 12:04:07;;;;;;;489.98;355.85;;;;;;;;;;4978287;28;20386;-79
2021/05/24 12:06:40;;;;;;;490.33;353.63;;;;;;;;;;4982094;28;20468;-77
2021/05/24 12:09:06;;;;;;;481.17;347.95;;;;;;;;;;4977688;28;20037;-76
2021/05/24 12:11:33;;;;;;;484.05;352.52;;;;;;;;;;5003076;28;20037;-78
2021/05/24 12:14:00;;;;;;;482.80;348.27;;;;;;;;;;4983053;28;20038;-77
2021/05/24 12:16:26;;;;;;;485.48;357.08;;;;;;;;;;4982576;28;20340;-76
2021/05/24 12:18:54;;;;;;;485.02;354.70;;;;;;;;;;4983853;28;20463;-78
2021/05/24 12:21:33;;;;;;;484.20;354.88;;;;;;;;;;4988609;28;20048;-77
2021/05/24 12:24:01;;;;;;;476.20;340.50;;;;;;;;;;4978404;28;20030;-78
2021/05/24 12:26:28;;;;;;;490.23;349.88;;;;;;;;;;4981904;28;20157;-76
2021/05/24 12:28:54;;;;;;;491.30;355.00;;;;;;;;;;4982768;28;20035;-77
2021/05/24 12:31:20;;;;;;;484.27;343.48;;;;;;;;;;4986909;28;20045;-78
2021/05/24 12:33:47;;;;;;;488.42;352.05;;;;;;;;;;4981856;28;20023;-77
2021/05/24 12:36:17;;;;;;;488.30;350.23;;;;;;;;;;4988102;28;20402;-76
2021/05/24 12:38:47;;;;;;;484.58;346.30;;;;;;;;;;5001569;28;20018;-76
2021/05/24 12:41:15;;;;;;;491.13;356.08;;;;;;;;;;4987823;28;20036;-80
2021/05/24 12:43:52;;;;;;;489.75;350.70;;;;;;;;;;4981071;28;20026;-77
2021/05/24 12:46:19;;;;;;;489.88;349.95;;;;;;;;;;4985969;28;20026;-80
2021/05/24 12:48:51;;;;;;;487.80;355.08;;;;;;;;;;4991605;28;20042;-79
2021/05/24 12:51:22;;;;;;;491.83;359.88;;;;;;;;;;4981666;28;20022;-79
2021/05/24 12:54:09;;;;;;;488.65;354.80;;;;;;;;;;4979545;28;20117;-80
2021/05/24 12:56:35;;;;;;;492.48;356.40;;;;;;;;;;4988949;28;20054;-79
2021/05/24 12:59:02;;;;;;;489.35;358.95;;;;;;;;;;4991615;28;20528;-80
2021/05/24 13:01:29;;;;;;;492.40;364.27;;;;;;;;;;4982423;28;20643;-80
2021/05/24 13:03:58;;;;;;;490.13;363.45;;;;;;;;;;4984052;28;20030;-80
2021/05/24 13:06:24;;;;;;;481.17;346.38;;;;;;;;;;4982804;28;20046;-79
2021/05/24 13:08:51;;;;;;;494.35;356.77;;;;;;;;;;4974895;28;20042;-80
2021/05/24 13:11:18;;;;;;;487.95;356.10;;;;;;;;;;4971957;28;20559;-81
2021/05/24 13:13:45;;;;;;;494.83;353.90;;;;;;;;;;4980185;28;20026;-79
2021/05/24 13:19:11;;;;;;;486.02;344.95;;;;;;;;;;4997518;28;20037;-79
2021/05/24 13:30:37;;;;;;;498.02;350.20;;;;;;;;;;4999543;28;20041;-79
2021/05/24 13:33:25;;;;;;;493.67;344.60;;;;;;;;;;4982821;28;20034;-80
2021/05/24 13:35:51;;;;;;;494.50;350.67;;;;;;;;;;4975532;28;20418;-79
2021/05/24 13:38:17;;;;;;;506.90;362.75;;;;;;;;;;4978849;28;20109;-79
2021/05/24 13:40:43;;;;;;;511.83;361.50;;;;;;;;;;4980814;28;20447;-79
2021/05/24 13:43:10;;;;;;;509.40;360.40;;;;;;;;;;4982042;28;20025;-79
2021/05/24 13:45:36;;;;;;;514.22;365.42;;;;;;;;;;4979719;28;20101;-79
2021/05/24 13:48:03;;;;;;;514.42;368.65;;;;;;;;;;4983789;28;20335;-80
2021/05/24 13:50:29;;;;;;;515.53;370.33;;;;;;;;;;4995756;28;20045;-79
2021/05/24 13:52:55;;;;;;;511.38;365.15;;;;;;;;;;4983742;28;20041;-78
2021/05/24 13:55:21;;;;;;;515.47;369.52;;;;;;;;;;4992609;28;21109;-79
2021/05/24 13:57:48;;;;;;;501.42;365.90;;;;;;;;;;4985284;28;20022;-78
2021/05/24 14:00:14;;;;;;;500.80;369.45;;;;;;;;;;4979966;28;20022;-79
2021/05/24 14:02:40;;;;;;;500.48;371.02;;;;;;;;;;4978252;28;20022;-79
2021/05/24 14:05:09;;;;;;;499.55;375.73;;;;;;;;;;4985824;28;20353;-79
2021/05/24 14:07:36;;;;;;;493.83;360.95;;;;;;;;;;4983560;28;20049;-79
2021/05/24 14:10:02;;;;;;;493.90;363.70;;;;;;;;;;4998727;28;20036;-80